createdAt,value
2016-09-06T00:00:39.511Z,0
2016-09-06T00:01:39.499Z,0
2016-09-06T00:02:39.811Z,0
2016-09-06T00:03:39.500Z,0
2016-09-06T00:04:39.474Z,0
2016-09-06T00:05:39.150Z,0
2016-09-06T00:06:39.147Z,0
2016-09-06T00:07:39.147Z,0
2016-09-06T00:08:39.441Z,0
2016-09-06T00:09:39.426Z,0
2016-09-06T00:10:39.107Z,0
2016-09-06T00:11:39.092Z,0
2016-09-06T00:12:39.425Z,0
2016-09-06T00:13:39.270Z,0
2016-09-06T00:14:39.067Z,0
2016-09-06T00:15:39.051Z,0
2016-09-06T00:16:39.052Z,0
2016-09-06T00:17:39.354Z,0
2016-09-06T00:18:39.026Z,0
2016-09-06T00:19:39.330Z,0
2016-09-06T00:20:39.008Z,0
2016-09-06T00:21:39.305Z,0
2016-09-06T00:22:38.994Z,0
2016-09-06T00:23:38.974Z,0
2016-09-06T00:24:38.970Z,0
2016-09-06T00:25:39.268Z,0
2016-09-06T00:26:38.946Z,0
2016-09-06T00:27:38.932Z,0
2016-09-06T00:28:38.939Z,0
2016-09-06T00:29:39.231Z,0
2016-09-06T00:30:38.909Z,0
2016-09-06T00:31:38.899Z,0
2016-09-06T00:32:38.892Z,0
2016-09-06T00:33:38.890Z,0
2016-09-06T00:34:38.868Z,0
2016-09-06T00:35:38.872Z,0
2016-09-06T00:36:39.171Z,0
2016-09-06T00:37:38.847Z,0
2016-09-06T00:38:38.834Z,0
2016-09-06T00:39:38.823Z,0
2016-09-06T00:40:39.123Z,0
2016-09-06T00:41:38.804Z,0
2016-09-06T00:42:39.107Z,0
2016-09-06T00:43:38.797Z,0
2016-09-06T00:44:39.088Z,0
2016-09-06T00:45:39.085Z,0
2016-09-06T00:46:39.715Z,0
2016-09-06T00:47:38.748Z,0
2016-09-06T00:48:38.790Z,0
2016-09-06T00:49:39.363Z,0
2016-09-06T00:50:38.716Z,0
2016-09-06T00:51:39.022Z,0
2016-09-06T00:52:39.033Z,0
2016-09-06T00:53:39.007Z,0
2016-09-06T00:54:38.681Z,0
2016-09-06T00:55:38.973Z,0
2016-09-06T00:56:38.660Z,0
2016-09-06T00:57:38.650Z,0
2016-09-06T00:58:38.638Z,0
2016-09-06T00:59:38.625Z,0
2016-09-06T01:00:38.929Z,0
2016-09-06T01:01:38.615Z,0
2016-09-06T01:02:38.596Z,0
2016-09-06T01:03:38.895Z,0
2016-09-06T01:04:38.578Z,0
2016-09-06T01:05:38.881Z,0
2016-09-06T01:06:38.555Z,0
2016-09-06T01:07:38.566Z,0
2016-09-06T01:08:38.538Z,0
2016-09-06T01:09:38.532Z,0
2016-09-06T01:10:38.514Z,0
2016-09-06T01:11:38.515Z,0
2016-09-06T01:12:38.501Z,0
2016-09-06T01:13:38.491Z,0
2016-09-06T01:14:38.789Z,0
2016-09-06T01:15:38.470Z,0
2016-09-06T01:16:38.460Z,0
2016-09-06T01:17:38.448Z,0
2016-09-06T01:18:38.441Z,0
2016-09-06T01:19:38.437Z,0
2016-09-06T01:20:38.417Z,0
2016-09-06T01:21:38.420Z,0
2016-09-06T01:22:38.395Z,0
2016-09-06T01:23:38.389Z,0
2016-09-06T01:24:38.378Z,0
2016-09-06T01:25:38.374Z,0
2016-09-06T01:26:38.360Z,0
2016-09-06T01:27:38.671Z,0
2016-09-06T01:28:38.352Z,0
2016-09-06T01:29:38.644Z,0
2016-09-06T01:30:38.345Z,0
2016-09-06T01:31:38.626Z,0
2016-09-06T01:32:38.620Z,0
2016-09-06T01:33:38.601Z,0
2016-09-06T01:34:38.278Z,0
2016-09-06T01:35:38.268Z,0
2016-09-06T01:36:38.568Z,0
2016-09-06T01:37:38.563Z,0
2016-09-06T01:38:38.551Z,0
2016-09-06T01:39:38.856Z,0
2016-09-06T01:40:38.223Z,0
2016-09-06T01:41:38.201Z,0
2016-09-06T01:42:38.521Z,0
2016-09-06T01:43:38.184Z,0
2016-09-06T01:44:38.180Z,0
2016-09-06T01:45:38.486Z,0
2016-09-06T01:46:38.484Z,0
2016-09-06T01:47:38.142Z,0
2016-09-06T01:48:38.453Z,0
2016-09-06T01:49:38.124Z,0
2016-09-06T01:50:38.439Z,0
2016-09-06T01:51:38.430Z,0
2016-09-06T01:52:38.105Z,0
2016-09-06T01:53:38.406Z,0
2016-09-06T01:54:38.390Z,0
2016-09-06T01:55:38.073Z,0
2016-09-06T01:56:38.371Z,0
2016-09-06T01:57:38.362Z,0
2016-09-06T01:58:38.040Z,0
2016-09-06T01:59:38.652Z,0
2016-09-06T02:00:38.329Z,0
2016-09-06T02:01:38.334Z,0
2016-09-06T02:02:37.993Z,0
2016-09-06T02:03:37.983Z,0
2016-09-06T02:04:37.975Z,0
2016-09-06T02:05:38.275Z,0
2016-09-06T02:06:38.009Z,0
2016-09-06T02:07:38.574Z,0
2016-09-06T02:08:38.253Z,0
2016-09-06T02:09:37.925Z,0
2016-09-06T02:10:38.544Z,0
2016-09-06T02:11:38.222Z,0
2016-09-06T02:12:37.893Z,0
2016-09-06T02:13:38.085Z,0
2016-09-06T02:14:37.867Z,0
2016-09-06T02:15:38.177Z,0
2016-09-06T02:16:38.162Z,0
2016-09-06T02:17:37.850Z,0
2016-09-06T02:18:37.828Z,0
2016-09-06T02:19:37.823Z,0
2016-09-06T02:20:38.432Z,0
2016-09-06T02:21:38.114Z,0
2016-09-06T02:22:37.789Z,0
2016-09-06T02:23:37.780Z,0
2016-09-06T02:24:38.084Z,0
2016-09-06T02:25:38.074Z,0
2016-09-06T02:26:37.750Z,0
2016-09-06T02:27:37.741Z,0
2016-09-06T02:28:37.726Z,0
2016-09-06T02:29:38.037Z,0
2016-09-06T02:30:37.719Z,0
2016-09-06T02:31:38.019Z,0
2016-09-06T02:32:37.679Z,0
2016-09-06T02:33:37.684Z,0
2016-09-06T02:34:37.661Z,0
2016-09-06T02:35:37.968Z,0
2016-09-06T02:36:38.268Z,0
2016-09-06T02:37:37.950Z,0
2016-09-06T02:38:37.621Z,0
2016-09-06T02:39:37.933Z,0
2016-09-06T02:40:37.927Z,0
2016-09-06T02:41:37.610Z,0
2016-09-06T02:42:37.590Z,0
2016-09-06T02:43:37.580Z,0
2016-09-06T02:44:37.876Z,0
2016-09-06T02:45:37.879Z,0
2016-09-06T02:46:37.540Z,0
2016-09-06T02:47:37.538Z,0
2016-09-06T02:48:37.577Z,0
2016-09-06T02:49:38.524Z,0
2016-09-06T02:50:38.147Z,0
2016-09-06T02:51:37.832Z,0
2016-09-06T02:52:37.480Z,0
2016-09-06T02:53:37.491Z,0
2016-09-06T02:54:38.094Z,0
2016-09-06T02:55:37.454Z,0
2016-09-06T02:56:37.753Z,0
2016-09-06T02:57:37.440Z,0
2016-09-06T02:58:37.735Z,0
2016-09-06T02:59:38.050Z,0
2016-09-06T03:00:38.067Z,0
2016-09-06T03:01:37.397Z,0
2016-09-06T03:02:37.385Z,0
2016-09-06T03:03:37.683Z,0
2016-09-06T03:04:37.689Z,0
2016-09-06T03:05:37.668Z,0
2016-09-06T03:06:37.668Z,0
2016-09-06T03:07:37.645Z,0
2016-09-06T03:08:37.632Z,0
2016-09-06T03:09:37.310Z,0
2016-09-06T03:10:37.295Z,0
2016-09-06T03:11:37.601Z,0
2016-09-06T03:12:37.585Z,0
2016-09-06T03:13:37.267Z,0
2016-09-06T03:14:37.887Z,0
2016-09-06T03:15:37.247Z,0
2016-09-06T03:16:37.234Z,0
2016-09-06T03:17:37.228Z,0
2016-09-06T03:18:37.529Z,0
2016-09-06T03:19:37.208Z,0
2016-09-06T03:20:37.195Z,0
2016-09-06T03:21:37.183Z,0
2016-09-06T03:22:37.172Z,0
2016-09-06T03:23:37.156Z,0
2016-09-06T03:24:37.151Z,0
2016-09-06T03:25:37.139Z,0
2016-09-06T03:26:37.443Z,0
2016-09-06T03:27:37.118Z,0
2016-09-06T03:28:37.105Z,0
2016-09-06T03:29:37.723Z,0
2016-09-06T03:30:37.088Z,0
2016-09-06T03:31:37.087Z,0
2016-09-06T03:32:37.063Z,0
2016-09-06T03:33:37.055Z,0
2016-09-06T03:34:37.049Z,0
2016-09-06T03:35:37.658Z,0
2016-09-06T03:36:37.032Z,0
2016-09-06T03:37:37.010Z,0
2016-09-06T03:38:37.321Z,0
2016-09-06T03:39:36.995Z,0
2016-09-06T03:40:37.309Z,0
2016-09-06T03:41:36.973Z,0
2016-09-06T03:42:37.268Z,0
2016-09-06T03:43:36.950Z,0
2016-09-06T03:44:37.253Z,0
2016-09-06T03:45:37.240Z,0
2016-09-06T03:46:36.922Z,0
2016-09-06T03:47:36.902Z,0
2016-09-06T03:48:36.942Z,0
2016-09-06T03:49:36.883Z,0
2016-09-06T03:50:37.878Z,0
2016-09-06T03:51:38.164Z,0
2016-09-06T03:52:37.499Z,0
2016-09-06T03:53:37.176Z,0
2016-09-06T03:54:36.846Z,0
2016-09-06T03:55:36.817Z,0
2016-09-06T03:56:37.143Z,0
2016-09-06T03:57:37.431Z,0
2016-09-06T03:58:36.787Z,0
2016-09-06T03:59:37.086Z,0
2016-09-06T04:00:37.088Z,0
2016-09-06T04:01:37.063Z,0
2016-09-06T04:02:37.067Z,0
2016-09-06T04:03:37.041Z,0
2016-09-06T04:04:36.725Z,0
2016-09-06T04:05:36.711Z,0
2016-09-06T04:06:36.704Z,0
2016-09-06T04:07:36.999Z,0
2016-09-06T04:08:36.682Z,0
2016-09-06T04:09:36.675Z,0
2016-09-06T04:10:36.666Z,0
2016-09-06T04:11:36.963Z,0
2016-09-06T04:12:37.268Z,0
2016-09-06T04:13:36.838Z,0
2016-09-06T04:14:36.622Z,0
2016-09-06T04:15:37.252Z,0
2016-09-06T04:16:36.598Z,0
2016-09-06T04:17:36.898Z,0
2016-09-06T04:18:36.579Z,0
2016-09-06T04:19:36.562Z,0
2016-09-06T04:20:36.553Z,0
2016-09-06T04:21:36.540Z,0
2016-09-06T04:22:36.538Z,0
2016-09-06T04:23:36.520Z,0
2016-09-06T04:24:36.520Z,0
2016-09-06T04:25:36.512Z,0
2016-09-06T04:26:36.493Z,0
2016-09-06T04:27:37.105Z,0
2016-09-06T04:28:36.785Z,0
2016-09-06T04:29:37.083Z,0
2016-09-06T04:30:36.466Z,0
2016-09-06T04:31:36.438Z,0
2016-09-06T04:32:36.423Z,0
2016-09-06T04:33:36.414Z,0
2016-09-06T04:34:36.406Z,0
2016-09-06T04:35:36.388Z,0
2016-09-06T04:36:36.692Z,0
2016-09-06T04:37:36.683Z,0
2016-09-06T04:38:36.357Z,0
2016-09-06T04:39:36.677Z,0
2016-09-06T04:40:36.651Z,0
2016-09-06T04:41:36.349Z,0
2016-09-06T04:42:36.320Z,0
2016-09-06T04:43:36.315Z,0
2016-09-06T04:44:36.305Z,0
2016-09-06T04:45:36.290Z,0
2016-09-06T04:46:36.291Z,0
2016-09-06T04:47:36.275Z,0
2016-09-06T04:48:36.567Z,0
2016-09-06T04:49:36.246Z,0
2016-09-06T04:50:36.543Z,0
2016-09-06T04:51:36.223Z,0
2016-09-06T04:52:36.221Z,5
2016-09-06T04:53:36.525Z,5
2016-09-06T04:54:36.499Z,5
2016-09-06T04:55:36.189Z,5
2016-09-06T04:56:36.176Z,5
2016-09-06T04:57:36.154Z,5
2016-09-06T04:58:36.143Z,5
2016-09-06T04:59:36.761Z,5
2016-09-06T05:00:36.433Z,5
2016-09-06T05:01:36.125Z,10
2016-09-06T05:02:36.107Z,10
2016-09-06T05:03:36.092Z,10
2016-09-06T05:04:36.085Z,10
2016-09-06T05:05:36.381Z,10
2016-09-06T05:06:36.374Z,10
2016-09-06T05:07:36.049Z,10
2016-09-06T05:08:36.036Z,10
2016-09-06T05:09:36.026Z,15
2016-09-06T05:10:36.022Z,15
2016-09-06T05:11:36.319Z,15
2016-09-06T05:12:35.997Z,15
2016-09-06T05:13:36.299Z,15
2016-09-06T05:14:36.294Z,15
2016-09-06T05:15:36.267Z,15
2016-09-06T05:16:36.265Z,15
2016-09-06T05:17:36.249Z,20
2016-09-06T05:18:35.930Z,20
2016-09-06T05:19:36.238Z,20
2016-09-06T05:20:35.908Z,20
2016-09-06T05:21:36.528Z,20
2016-09-06T05:22:35.885Z,20
2016-09-06T05:23:35.875Z,25
2016-09-06T05:24:36.493Z,25
2016-09-06T05:25:35.858Z,25
2016-09-06T05:26:35.848Z,25
2016-09-06T05:27:36.159Z,25
2016-09-06T05:28:35.819Z,25
2016-09-06T05:29:35.813Z,25
2016-09-06T05:30:36.111Z,30
2016-09-06T05:31:36.098Z,30
2016-09-06T05:32:36.098Z,30
2016-09-06T05:33:36.075Z,30
2016-09-06T05:34:35.758Z,30
2016-09-06T05:35:35.748Z,30
2016-09-06T05:36:36.361Z,30
2016-09-06T05:37:35.721Z,35
2016-09-06T05:38:36.027Z,35
2016-09-06T05:39:35.701Z,35
2016-09-06T05:40:36.018Z,35
2016-09-06T05:41:36.045Z,35
2016-09-06T05:42:35.987Z,35
2016-09-06T05:43:35.659Z,35
2016-09-06T05:44:36.291Z,40
2016-09-06T05:45:35.636Z,40
2016-09-06T05:46:35.941Z,40
2016-09-06T05:47:35.938Z,40
2016-09-06T05:48:35.607Z,40
2016-09-06T05:49:35.596Z,40
2016-09-06T05:50:35.895Z,40
2016-09-06T05:51:35.584Z,40
2016-09-06T05:52:35.873Z,45
2016-09-06T05:53:35.554Z,45
2016-09-06T05:54:36.526Z,45
2016-09-06T05:55:35.870Z,45
2016-09-06T05:56:36.535Z,45
2016-09-06T05:57:35.829Z,45
2016-09-06T05:58:36.129Z,45
2016-09-06T05:59:35.805Z,45
2016-09-06T06:00:35.490Z,45
2016-09-06T06:01:35.464Z,50
2016-09-06T06:02:35.779Z,50
2016-09-06T06:03:35.755Z,50
2016-09-06T06:04:35.439Z,50
2016-09-06T06:05:35.423Z,50
2016-09-06T06:06:35.432Z,50
2016-09-06T06:07:35.412Z,50
2016-09-06T06:08:35.719Z,50
2016-09-06T06:09:35.383Z,50
2016-09-06T06:10:35.690Z,55
2016-09-06T06:11:35.366Z,55
2016-09-06T06:12:35.357Z,55
2016-09-06T06:13:35.544Z,55
2016-09-06T06:14:35.652Z,55
2016-09-06T06:15:35.336Z,55
2016-09-06T06:16:35.650Z,55
2016-09-06T06:17:35.928Z,55
2016-09-06T06:18:35.291Z,60
2016-09-06T06:19:35.283Z,60
2016-09-06T06:20:35.588Z,60
2016-09-06T06:21:35.572Z,60
2016-09-06T06:22:35.573Z,60
2016-09-06T06:23:35.869Z,60
2016-09-06T06:24:35.857Z,60
2016-09-06T06:25:35.865Z,60
2016-09-06T06:26:35.521Z,60
2016-09-06T06:27:35.520Z,60
2016-09-06T06:28:35.527Z,65
2016-09-06T06:29:35.497Z,65
2016-09-06T06:30:35.481Z,65
2016-09-06T06:31:35.803Z,65
2016-09-06T06:32:35.155Z,65
2016-09-06T06:33:35.453Z,65
2016-09-06T06:34:35.758Z,65
2016-09-06T06:35:35.114Z,65
2016-09-06T06:36:35.109Z,65
2016-09-06T06:37:35.094Z,65
2016-09-06T06:38:35.409Z,70
2016-09-06T06:39:35.070Z,70
2016-09-06T06:40:35.077Z,70
2016-09-06T06:41:35.371Z,70
2016-09-06T06:42:35.048Z,70
2016-09-06T06:43:35.039Z,70
2016-09-06T06:44:35.042Z,70
2016-09-06T06:45:35.023Z,70
2016-09-06T06:46:35.010Z,70
2016-09-06T06:47:35.000Z,70
2016-09-06T06:48:35.307Z,75
2016-09-06T06:49:35.031Z,75
2016-09-06T06:50:34.977Z,75
2016-09-06T06:51:35.586Z,75
2016-09-06T06:52:35.267Z,75
2016-09-06T06:53:35.255Z,75
2016-09-06T06:54:35.243Z,75
2016-09-06T06:55:35.233Z,75
2016-09-06T06:56:35.224Z,80
2016-09-06T06:57:35.215Z,80
2016-09-06T06:58:34.893Z,80
2016-09-06T06:59:35.209Z,80
2016-09-06T07:00:35.207Z,80
2016-09-06T07:01:34.864Z,80
2016-09-06T07:02:34.853Z,80
2016-09-06T07:03:35.171Z,80
2016-09-06T07:04:35.520Z,80
2016-09-06T07:05:35.149Z,80
2016-09-06T07:06:35.124Z,80
2016-09-06T07:07:34.810Z,80
2016-09-06T07:08:35.426Z,80
2016-09-06T07:09:34.790Z,80
2016-09-06T07:10:35.089Z,80
2016-09-06T07:11:35.081Z,80
2016-09-06T07:12:34.757Z,80
2016-09-06T07:13:35.062Z,80
2016-09-06T07:14:34.741Z,85
2016-09-06T07:15:35.042Z,85
2016-09-06T07:16:35.033Z,85
2016-09-06T07:17:34.722Z,85
2016-09-06T07:18:35.325Z,85
2016-09-06T07:19:35.317Z,85
2016-09-06T07:20:34.679Z,85
2016-09-06T07:21:34.673Z,85
2016-09-06T07:22:34.980Z,90
2016-09-06T07:23:34.656Z,90
2016-09-06T07:24:35.267Z,90
2016-09-06T07:25:34.965Z,90
2016-09-06T07:26:35.252Z,90
2016-09-06T07:27:34.934Z,90
2016-09-06T07:28:34.608Z,90
2016-09-06T07:29:34.924Z,90
2016-09-06T07:30:34.598Z,90
2016-09-06T07:31:34.900Z,90
2016-09-06T07:32:34.579Z,95
2016-09-06T07:33:34.565Z,95
2016-09-06T07:34:34.558Z,95
2016-09-06T07:35:34.849Z,95
2016-09-06T07:36:34.549Z,95
2016-09-06T07:37:34.524Z,95
2016-09-06T07:38:34.522Z,95
2016-09-06T07:39:34.823Z,95
2016-09-06T07:40:34.808Z,95
2016-09-06T07:41:34.797Z,95
2016-09-06T07:42:34.472Z,95
2016-09-06T07:43:34.781Z,100
2016-09-06T07:44:34.462Z,100
2016-09-06T07:45:34.762Z,100
2016-09-06T07:46:34.755Z,100
2016-09-06T07:47:34.436Z,100
2016-09-06T07:48:34.426Z,100
2016-09-06T07:49:34.416Z,100
2016-09-06T07:50:34.417Z,100
2016-09-06T07:51:34.727Z,100
2016-09-06T07:52:34.391Z,105
2016-09-06T07:53:34.703Z,105
2016-09-06T07:54:34.679Z,105
2016-09-06T07:55:34.684Z,105
2016-09-06T07:56:34.665Z,105
2016-09-06T07:57:34.348Z,105
2016-09-06T07:58:34.334Z,110
2016-09-06T07:59:34.645Z,110
2016-09-06T08:00:34.315Z,110
2016-09-06T08:01:34.632Z,110
2016-09-06T08:02:34.314Z,110
2016-09-06T08:03:34.609Z,115
2016-09-06T08:04:34.288Z,115
2016-09-06T08:05:34.280Z,110
2016-09-06T08:06:34.275Z,110
2016-09-06T08:07:34.888Z,115
2016-09-06T08:08:34.883Z,115
2016-09-06T08:09:34.561Z,115
2016-09-06T08:10:34.254Z,120
2016-09-06T08:11:34.227Z,130
2016-09-06T08:12:34.544Z,125
2016-09-06T08:13:34.744Z,150
2016-09-06T08:14:34.211Z,130
2016-09-06T08:15:34.948Z,160
2016-09-06T08:16:34.200Z,225
2016-09-06T08:17:34.203Z,230
2016-09-06T08:18:34.187Z,190
2016-09-06T08:19:34.489Z,250
2016-09-06T08:20:34.170Z,460
2016-09-06T08:21:34.159Z,510
2016-09-06T08:22:34.149Z,295
2016-09-06T08:23:34.137Z,175
2016-09-06T08:24:34.130Z,180
2016-09-06T08:25:34.443Z,200
2016-09-06T08:26:34.120Z,195
2016-09-06T08:27:34.425Z,260
2016-09-06T08:28:34.739Z,235
2016-09-06T08:29:34.417Z,155
2016-09-06T08:30:34.086Z,140
2016-09-06T08:31:34.389Z,150
2016-09-06T08:32:34.381Z,145
2016-09-06T08:33:34.376Z,140
2016-09-06T08:34:34.062Z,135
2016-09-06T08:35:34.670Z,140
2016-09-06T08:36:34.043Z,135
2016-09-06T08:37:34.037Z,135
2016-09-06T08:38:34.681Z,135
2016-09-06T08:39:34.350Z,135
2016-09-06T08:40:34.024Z,135
2016-09-06T08:41:34.013Z,135
2016-09-06T08:42:34.316Z,135
2016-09-06T08:43:34.309Z,135
2016-09-06T08:44:34.294Z,135
2016-09-06T08:45:34.603Z,140
2016-09-06T08:46:34.277Z,140
2016-09-06T08:47:33.965Z,140
2016-09-06T08:48:33.955Z,145
2016-09-06T08:49:34.173Z,145
2016-09-06T08:50:33.943Z,150
2016-09-06T08:51:34.247Z,150
2016-09-06T08:52:34.244Z,160
2016-09-06T08:53:34.245Z,155
2016-09-06T08:54:34.550Z,145
2016-09-06T08:55:33.905Z,145
2016-09-06T08:56:33.903Z,150
2016-09-06T08:57:33.887Z,155
2016-09-06T08:58:34.194Z,160
2016-09-06T08:59:34.198Z,155
2016-09-06T09:00:34.185Z,160
2016-09-06T09:01:33.862Z,165
2016-09-06T09:02:33.861Z,190
2016-09-06T09:03:33.848Z,180
2016-09-06T09:04:34.161Z,170
2016-09-06T09:05:33.839Z,185
2016-09-06T09:06:34.143Z,200
2016-09-06T09:07:34.138Z,205
2016-09-06T09:08:33.821Z,245
2016-09-06T09:09:33.808Z,290
2016-09-06T09:10:33.805Z,340
2016-09-06T09:11:34.109Z,325
2016-09-06T09:12:33.783Z,295
2016-09-06T09:13:33.779Z,240
2016-09-06T09:14:33.773Z,210
2016-09-06T09:15:34.086Z,215
2016-09-06T09:16:34.072Z,185
2016-09-06T09:17:33.763Z,175
2016-09-06T09:18:33.753Z,165
2016-09-06T09:19:34.379Z,170
2016-09-06T09:20:33.741Z,175
2016-09-06T09:21:33.741Z,185
2016-09-06T09:22:33.727Z,175
2016-09-06T09:23:34.342Z,170
2016-09-06T09:24:34.029Z,170
2016-09-06T09:25:33.704Z,175
2016-09-06T09:26:33.710Z,180
2016-09-06T09:27:34.010Z,170
2016-09-06T09:28:33.993Z,165
2016-09-06T09:29:34.306Z,175
2016-09-06T09:30:33.666Z,195
2016-09-06T09:31:33.665Z,170
2016-09-06T09:32:33.671Z,180
2016-09-06T09:33:33.959Z,180
2016-09-06T09:34:33.646Z,170
2016-09-06T09:35:33.703Z,170
2016-09-06T09:36:33.633Z,175
2016-09-06T09:37:33.638Z,170
2016-09-06T09:38:33.646Z,175
2016-09-06T09:39:33.612Z,200
2016-09-06T09:40:33.929Z,200
2016-09-06T09:41:33.913Z,180
2016-09-06T09:42:33.912Z,175
2016-09-06T09:43:33.906Z,180
2016-09-06T09:44:33.587Z,185
2016-09-06T09:45:34.203Z,235
2016-09-06T09:46:33.883Z,215
2016-09-06T09:47:33.561Z,195
2016-09-06T09:48:33.561Z,195
2016-09-06T09:49:34.227Z,190
2016-09-06T09:50:33.546Z,190
2016-09-06T09:51:33.850Z,195
2016-09-06T09:52:33.537Z,195
2016-09-06T09:53:33.531Z,200
2016-09-06T09:54:34.155Z,200
2016-09-06T09:55:33.533Z,200
2016-09-06T09:56:33.516Z,200
2016-09-06T09:57:33.517Z,210
2016-09-06T09:58:34.127Z,220
2016-09-06T09:59:33.811Z,350
2016-09-06T10:00:33.801Z,250
2016-09-06T10:01:33.482Z,230
2016-09-06T10:02:33.798Z,210
2016-09-06T10:03:33.782Z,210
2016-09-06T10:04:33.778Z,215
2016-09-06T10:05:33.458Z,225
2016-09-06T10:06:33.446Z,220
2016-09-06T10:07:33.768Z,225
2016-09-06T10:08:33.755Z,225
2016-09-06T10:09:34.050Z,280
2016-09-06T10:10:33.441Z,255
2016-09-06T10:11:33.414Z,195
2016-09-06T10:12:33.720Z,270
2016-09-06T10:13:33.866Z,245
2016-09-06T10:14:34.036Z,250
2016-09-06T10:15:33.392Z,375
2016-09-06T10:16:33.709Z,375
2016-09-06T10:17:34.001Z,295
2016-09-06T10:18:33.373Z,625
2016-09-06T10:19:34.001Z,790
2016-09-06T10:20:33.679Z,360
2016-09-06T10:21:33.687Z,440
2016-09-06T10:22:33.665Z,275
2016-09-06T10:23:33.654Z,245
2016-09-06T10:24:33.648Z,245
2016-09-06T10:25:33.334Z,245
2016-09-06T10:26:33.320Z,255
2016-09-06T10:27:33.642Z,250
2016-09-06T10:28:33.318Z,265
2016-09-06T10:29:33.312Z,275
2016-09-06T10:30:33.928Z,285
2016-09-06T10:31:33.615Z,290
2016-09-06T10:32:33.604Z,340
2016-09-06T10:33:33.605Z,370
2016-09-06T10:34:33.590Z,320
2016-09-06T10:35:33.594Z,310
2016-09-06T10:36:33.273Z,265
2016-09-06T10:38:33.580Z,445
2016-09-06T10:39:33.252Z,605
2016-09-06T10:40:33.884Z,555
2016-09-06T10:41:33.559Z,855
2016-09-06T10:42:33.549Z,800
2016-09-06T10:43:33.238Z,615
2016-09-06T10:44:33.537Z,380
2016-09-06T10:45:34.164Z,295
2016-09-06T10:46:33.215Z,760
2016-09-06T10:47:33.842Z,500
2016-09-06T10:48:33.209Z,265
2016-09-06T10:49:33.564Z,280
2016-09-06T10:50:33.507Z,265
2016-09-06T10:51:33.504Z,290
2016-09-06T10:52:33.812Z,285
2016-09-06T10:53:33.807Z,300
2016-09-06T10:54:33.183Z,285
2016-09-06T10:55:33.485Z,325
2016-09-06T10:56:33.481Z,340
2016-09-06T10:57:34.099Z,390
2016-09-06T10:58:33.153Z,405
2016-09-06T10:59:33.456Z,360
2016-09-06T11:00:33.150Z,345
2016-09-06T11:01:33.452Z,345
2016-09-06T11:02:33.135Z,375
2016-09-06T11:03:33.760Z,410
2016-09-06T11:04:33.144Z,605
2016-09-06T11:05:33.111Z,620
2016-09-06T11:06:33.119Z,875
2016-09-06T11:07:33.425Z,795
2016-09-06T11:08:33.187Z,680
2016-09-06T11:09:33.104Z,820
2016-09-06T11:10:33.426Z,1175
2016-09-06T11:11:33.406Z,1210
2016-09-06T11:12:33.731Z,920
2016-09-06T11:13:33.093Z,1335
2016-09-06T11:14:33.097Z,955
2016-09-06T11:15:33.415Z,695
2016-09-06T11:16:33.076Z,940
2016-09-06T11:17:33.385Z,1050
2016-09-06T11:18:33.389Z,995
2016-09-06T11:19:33.077Z,1270
2016-09-06T11:20:33.401Z,1385
2016-09-06T11:21:33.397Z,1680
2016-09-06T11:22:34.011Z,1730
2016-09-06T11:23:33.072Z,1785
2016-09-06T11:24:33.378Z,1795
2016-09-06T11:25:33.068Z,1760
2016-09-06T11:26:33.061Z,1735
2016-09-06T11:27:33.384Z,1695
2016-09-06T11:28:33.685Z,1705
2016-09-06T11:29:33.075Z,1680
2016-09-06T11:30:33.689Z,1675
2016-09-06T11:31:33.069Z,1675
2016-09-06T11:32:33.073Z,1705
2016-09-06T11:33:33.383Z,1690
2016-09-06T11:34:33.701Z,1670
2016-09-06T11:35:33.079Z,1665
2016-09-06T11:36:33.702Z,1650
2016-09-06T11:37:33.711Z,1665
2016-09-06T11:38:33.403Z,1760
2016-09-06T11:39:33.392Z,1770
2016-09-06T11:40:33.084Z,1880
2016-09-06T11:41:33.399Z,1830
2016-09-06T11:42:33.410Z,1915
2016-09-06T11:43:33.090Z,1870
2016-09-06T11:44:33.410Z,1900
2016-09-06T11:45:33.405Z,1925
2016-09-06T11:46:33.723Z,1905
2016-09-06T11:47:33.419Z,1905
2016-09-06T11:48:33.422Z,1875
2016-09-06T11:49:33.415Z,1915
2016-09-06T11:50:34.049Z,1985
2016-09-06T11:51:33.118Z,1995
2016-09-06T11:52:33.116Z,1980
2016-09-06T11:53:33.754Z,1920
2016-09-06T11:54:33.130Z,1890
2016-09-06T11:55:34.065Z,1780
2016-09-06T11:56:33.134Z,1320
2016-09-06T11:57:33.140Z,1020
2016-09-06T11:58:33.774Z,985
2016-09-06T11:59:33.143Z,1810
2016-09-06T12:00:33.468Z,1735
2016-09-06T12:01:33.148Z,1695
2016-09-06T12:02:33.462Z,1600
2016-09-06T12:03:33.152Z,1595
2016-09-06T12:04:33.466Z,1725
2016-09-06T12:05:33.167Z,1530
2016-09-06T12:06:33.157Z,1760
2016-09-06T12:07:33.843Z,1890
2016-09-06T12:08:33.815Z,1795
2016-09-06T12:09:33.802Z,1800
2016-09-06T12:10:33.812Z,1885
2016-09-06T12:11:33.806Z,1870
2016-09-06T12:12:33.197Z,1885
2016-09-06T12:13:33.501Z,1860
2016-09-06T12:14:33.515Z,1865
2016-09-06T12:15:33.860Z,1815
2016-09-06T12:16:33.521Z,1445
2016-09-06T12:17:33.505Z,1650
2016-09-06T12:18:33.206Z,1580
2016-09-06T12:19:33.522Z,1685
2016-09-06T12:20:33.213Z,1790
2016-09-06T12:21:33.220Z,1685
2016-09-06T12:22:33.855Z,1810
2016-09-06T12:23:33.222Z,1805
2016-09-06T12:24:33.556Z,1830
2016-09-06T12:25:33.853Z,1780
2016-09-06T12:26:33.551Z,1775
2016-09-06T12:27:33.253Z,1605
2016-09-06T12:28:33.246Z,1745
2016-09-06T12:29:33.558Z,1685
2016-09-06T12:30:33.260Z,1780
2016-09-06T12:31:33.571Z,1835
2016-09-06T12:32:33.270Z,1845
2016-09-06T12:33:33.271Z,1770
2016-09-06T12:34:33.271Z,1710
2016-09-06T12:35:33.589Z,1660
2016-09-06T12:36:33.279Z,1680
2016-09-06T12:37:33.909Z,1705
2016-09-06T12:38:33.290Z,1765
2016-09-06T12:39:33.613Z,1780
2016-09-06T12:40:33.304Z,1765
2016-09-06T12:41:33.313Z,1735
2016-09-06T12:42:33.627Z,1680
2016-09-06T12:43:33.649Z,1630
2016-09-06T12:44:33.357Z,1595
2016-09-06T12:45:33.325Z,1650
2016-09-06T12:46:33.328Z,1720
2016-09-06T12:47:33.357Z,1750
2016-09-06T12:48:33.341Z,1720
2016-09-06T12:49:33.656Z,1750
2016-09-06T12:50:33.666Z,1720
2016-09-06T12:51:33.354Z,1745
2016-09-06T12:52:33.362Z,1830
2016-09-06T12:53:34.000Z,1845
2016-09-06T12:54:33.700Z,1820
2016-09-06T12:55:33.440Z,1730
2016-09-06T12:56:33.703Z,1675
2016-09-06T12:57:33.403Z,1725
2016-09-06T12:58:33.402Z,1675
2016-09-06T12:59:33.423Z,1640
2016-09-06T13:00:34.037Z,1555
2016-09-06T13:01:33.426Z,1585
2016-09-06T13:02:33.426Z,1640
2016-09-06T13:03:34.053Z,1665
2016-09-06T13:04:33.745Z,1635
2016-09-06T13:05:33.435Z,1605
2016-09-06T13:06:33.440Z,1600
2016-09-06T13:07:33.759Z,1595
2016-09-06T13:08:33.474Z,1670
2016-09-06T13:09:33.468Z,1600
2016-09-06T13:10:33.775Z,1635
2016-09-06T13:11:33.462Z,1570
2016-09-06T13:12:33.783Z,1585
2016-09-06T13:13:33.469Z,1530
2016-09-06T13:14:33.479Z,1565
2016-09-06T13:15:33.485Z,1580
2016-09-06T13:16:33.825Z,1595
2016-09-06T13:17:33.839Z,1590
2016-09-06T13:18:33.507Z,1610
2016-09-06T13:19:33.848Z,1590
2016-09-06T13:20:33.839Z,1560
2016-09-06T13:21:33.518Z,1515
2016-09-06T13:22:33.524Z,1515
2016-09-06T13:23:33.850Z,1525
2016-09-06T13:24:34.160Z,1530
2016-09-06T13:25:33.539Z,1530
2016-09-06T13:26:33.537Z,1525
2016-09-06T13:27:33.868Z,1435
2016-09-06T13:28:34.198Z,1395
2016-09-06T13:29:33.868Z,1435
2016-09-06T13:30:33.559Z,1455
2016-09-06T13:31:34.194Z,1455
2016-09-06T13:32:33.569Z,1490
2016-09-06T13:33:33.893Z,1480
2016-09-06T13:34:33.899Z,1455
2016-09-06T13:35:33.596Z,1475
2016-09-06T13:36:34.550Z,1490
2016-09-06T13:37:33.909Z,1475
2016-09-06T13:38:33.910Z,1450
2016-09-06T13:39:33.611Z,1440
2016-09-06T13:40:33.927Z,1370
2016-09-06T13:41:33.608Z,1300
2016-09-06T13:42:33.641Z,1265
2016-09-06T13:43:33.615Z,1270
2016-09-06T13:44:33.955Z,1335
2016-09-06T13:45:33.941Z,1350
2016-09-06T13:46:33.950Z,1370
2016-09-06T13:47:33.955Z,1435
2016-09-06T13:48:33.649Z,1495
2016-09-06T13:49:33.995Z,1515
2016-09-06T13:50:33.648Z,1515
2016-09-06T13:51:33.664Z,1480
2016-09-06T13:52:33.982Z,1485
2016-09-06T13:53:33.677Z,1420
2016-09-06T13:54:33.994Z,1360
2016-09-06T13:55:33.998Z,1260
2016-09-06T13:56:33.690Z,1255
2016-09-06T13:57:34.005Z,1235
2016-09-06T13:58:33.697Z,1090
2016-09-06T13:59:33.706Z,805
2016-09-06T14:00:34.017Z,1180
2016-09-06T14:01:34.029Z,1200
2016-09-06T14:02:34.041Z,1175
2016-09-06T14:03:34.033Z,1165
2016-09-06T14:04:33.722Z,1175
2016-09-06T14:05:34.345Z,1225
2016-09-06T14:06:33.727Z,1195
2016-09-06T14:07:33.725Z,1165